Time;durP1;ratioP1;P1;durP2;ratioP2;P2;SDS_P1;SDS_P2;PMS_P1;PMS_P2;Temp;Humidity;BMP_temperature;BMP_pressure;BME280_temperature;BME280_humidity;BME280_pressure;Samples;Min_cycle;Max_cycle;Signal;HPM_P1;HPM_P2
2023/12/14 00:00:15;;;;;;;0.60;0.60;;;;;;;4.25;100.00;95803.97;29395;199;63004;-66
2023/12/14 00:00:48;;;;;;;0.60;0.60;;;;;;;4.23;100.00;95799.97;29395;198;63009;-66
2023/12/14 00:01:20;;;;;;;0.60;0.60;;;;;;;4.23;100.00;95805.34;29395;204;63008;-66
2023/12/14 00:01:51;;;;;;;0.60;0.60;;;;;;;4.20;100.00;95801.31;29395;210;63009;-56
2023/12/14 00:02:22;;;;;;;0.60;0.60;;;;;;;4.20;100.00;95795.16;29394;228;64009;-66
2023/12/14 00:02:53;;;;;;;0.60;0.60;;;;;;;4.20;100.00;95803.19;29395;208;63009;-67
2023/12/14 00:03:24;;;;;;;0.60;0.60;;;;;;;4.19;100.00;95799.72;29394;202;64005;-56
2023/12/14 00:03:56;;;;;;;0.50;0.50;;;;;;;4.19;100.00;95801.59;29395;291;63009;-55
2023/12/14 00:04:27;;;;;;;0.50;0.50;;;;;;;4.19;100.00;95804.28;29395;206;63005;-67
2023/12/14 00:04:58;;;;;;;0.60;0.60;;;;;;;4.20;100.00;95800.53;29395;258;63009;-66
2023/12/14 00:05:29;;;;;;;0.60;0.60;;;;;;;4.18;100.00;95797.31;29395;232;63000;-66
2023/12/14 00:06:00;;;;;;;0.60;0.60;;;;;;;4.18;100.00;95805.38;29395;215;63009;-66
2023/12/14 00:06:32;;;;;;;0.60;0.60;;;;;;;4.16;100.00;95802.19;29395;208;63004;-67
2023/12/14 00:07:04;;;;;;;0.50;0.50;;;;;;;4.17;100.00;95801.87;29395;252;63009;-66
2023/12/14 00:07:35;;;;;;;0.60;0.60;;;;;;;4.17;100.00;95806.44;29394;294;64009;-67
2023/12/14 00:08:06;;;;;;;0.60;0.60;;;;;;;4.19;100.00;95809.66;29395;353;63019;-67
2023/12/14 00:08:37;;;;;;;0.60;0.60;;;;;;;4.19;100.00;95805.09;29395;240;63015;-67
2023/12/14 00:09:09;;;;;;;0.60;0.60;;;;;;;4.19;100.00;95804.28;29395;221;63008;-66
2023/12/14 00:09:41;;;;;;;0.60;0.60;;;;;;;4.18;100.00;95803.47;29395;197;63005;-67
2023/12/14 00:10:12;;;;;;;0.60;0.60;;;;;;;4.16;100.00;95808.31;29395;313;63009;-66
2023/12/14 00:10:47;;;;;;;0.60;0.60;;;;;;;4.18;100.00;95808.03;29395;211;63005;-66
2023/12/14 00:11:18;;;;;;;0.60;0.60;;;;;;;4.17;100.00;95811.81;29395;258;63009;-67
2023/12/14 00:11:49;;;;;;;0.60;0.60;;;;;;;4.18;100.00;95810.72;29395;286;63005;-66
2023/12/14 00:12:20;;;;;;;0.60;0.60;;;;;;;4.18;100.00;95813.41;29395;219;63009;-66
2023/12/14 00:12:55;;;;;;;0.50;0.50;;;;;;;4.19;100.00;95815.03;29394;202;64009;-66
2023/12/14 00:13:26;;;;;;;0.50;0.50;;;;;;;4.18;100.00;95810.72;29395;226;63009;-66
2023/12/14 00:13:58;;;;;;;0.60;0.60;;;;;;;4.19;100.00;95817.72;29395;203;63004;-66
2023/12/14 00:14:29;;;;;;;0.60;0.60;;;;;;;4.19;100.00;95815.03;29395;216;63009;-66
2023/12/14 00:15:01;;;;;;;0.60;0.60;;;;;;;4.20;100.00;95816.63;29395;224;63004;-56
2023/12/14 00:15:32;;;;;;;0.60;0.60;;;;;;;4.20;100.00;95819.31;29395;275;63009;-66
2023/12/14 00:16:04;;;;;;;0.60;0.60;;;;;;;4.20;100.00;95816.63;29395;214;63004;-68
2023/12/14 00:16:35;;;;;;;0.60;0.60;;;;;;;4.19;100.00;95815.03;29395;198;63008;-68
2023/12/14 00:17:07;;;;;;;0.57;0.57;;;;;;;4.19;100.00;95815.81;29395;238;63005;-66
2023/12/14 00:17:38;;;;;;;0.60;0.60;;;;;;;4.19;100.00;95820.38;29395;221;63009;-67
2023/12/14 00:18:09;;;;;;;0.50;0.50;;;;;;;4.19;100.00;95820.38;29394;225;64009;-67
2023/12/14 00:18:40;;;;;;;0.60;0.60;;;;;;;4.20;100.00;95819.31;29395;311;63027;-66
2023/12/14 00:19:13;;;;;;;0.55;0.55;;;;;;;4.19;100.00;95815.03;29395;250;63005;-66
2023/12/14 00:19:45;;;;;;;0.60;0.60;;;;;;;4.19;100.00;95823.06;29395;291;63009;-66
2023/12/14 00:20:16;;;;;;;0.60;0.60;;;;;;;4.19;100.00;95820.38;29395;235;63011;-55
2023/12/14 00:20:48;;;;;;;0.50;0.50;;;;;;;4.20;100.00;95824.69;29395;227;63018;-66
2023/12/14 00:21:19;;;;;;;0.50;0.50;;;;;;;4.19;100.00;95820.38;29395;207;63004;-66
2023/12/14 00:21:50;;;;;;;0.60;0.60;;;;;;;4.19;100.00;95825.75;29395;208;63009;-67
2023/12/14 00:22:22;;;;;;;0.60;0.60;;;;;;;4.18;100.00;95827.66;29395;350;63004;-67
2023/12/14 00:22:53;;;;;;;0.50;0.50;;;;;;;4.18;100.00;95826.84;29395;304;63009;-66
2023/12/14 00:23:24;;;;;;;0.50;0.50;;;;;;;4.17;100.00;95825.25;29394;217;64009;-67
2023/12/14 00:23:56;;;;;;;0.60;0.60;;;;;;;4.16;100.00;95813.69;29395;312;63020;-66
2023/12/14 00:24:27;;;;;;;0.60;0.60;;;;;;;4.16;100.00;95821.75;29395;319;63005;-56
2023/12/14 00:24:58;;;;;;;0.60;0.60;;;;;;;4.17;100.00;95817.19;29395;340;63009;-56
2023/12/14 00:25:29;;;;;;;0.60;0.60;;;;;;;4.18;100.00;95819.59;29395;272;63005;-66
2023/12/14 00:26:00;;;;;;;0.60;0.60;;;;;;;4.17;100.00;95827.91;29395;223;63009;-67
2023/12/14 00:26:32;;;;;;;0.60;0.60;;;;;;;4.19;100.00;95823.06;29395;211;63005;-67
2023/12/14 00:27:04;;;;;;;0.60;0.60;;;;;;;4.19;100.00;95820.38;29395;211;63009;-67
2023/12/14 00:27:35;;;;;;;0.60;0.60;;;;;;;4.19;100.00;95829.25;29395;212;63005;-68
2023/12/14 00:28:06;;;;;;;0.60;0.60;;;;;;;4.19;100.00;95825.75;29395;251;63009;-67
2023/12/14 00:28:38;;;;;;;0.55;0.55;;;;;;;4.18;100.00;95824.16;29394;243;64009;-67
2023/12/14 00:29:09;;;;;;;0.60;0.60;;;;;;;4.18;100.00;95829.53;29395;219;63009;-56
2023/12/14 00:29:40;;;;;;;0.60;0.60;;;;;;;4.18;100.00;95834.91;29395;215;63004;-67
2023/12/14 00:30:12;;;;;;;0.60;0.60;;;;;;;4.18;100.00;95824.16;29395;287;63009;-67
2023/12/14 00:30:44;;;;;;;0.60;0.60;;;;;;;4.17;100.00;95828.72;29395;359;63004;-55
2023/12/14 00:31:17;;;;;;;0.60;0.60;;;;;;;4.18;100.00;95832.22;29395;202;63008;-67
2023/12/14 00:31:48;;;;;;;0.60;0.60;;;;;;;4.18;100.00;95834.91;29395;220;63004;-66
2023/12/14 00:32:19;;;;;;;0.60;0.60;;;;;;;4.16;100.00;95837.84;29395;222;63009;-67
2023/12/14 00:32:50;;;;;;;0.50;0.50;;;;;;;4.16;100.00;95831.72;29395;240;63005;-66
2023/12/14 00:33:23;;;;;;;0.60;0.60;;;;;;;4.17;100.00;95830.59;29395;202;63009;-67
2023/12/14 00:33:54;;;;;;;0.60;0.60;;;;;;;4.18;100.00;95829.53;29394;216;64009;-67
2023/12/14 00:34:25;;;;;;;0.60;0.60;;;;;;;4.17;100.00;95822.56;29395;233;63009;-67
2023/12/14 00:34:56;;;;;;;0.60;0.60;;;;;;;4.17;100.00;95825.25;29395;215;63005;-68
2023/12/14 00:35:28;;;;;;;0.60;0.60;;;;;;;4.17;100.00;95827.91;29395;301;63009;-68
2023/12/14 00:35:59;;;;;;;0.60;0.60;;;;;;;4.18;100.00;95826.84;29395;266;63004;-66
2023/12/14 00:36:30;;;;;;;0.60;0.60;;;;;;;4.16;100.00;95831.72;29395;267;63009;-67
2023/12/14 00:37:01;;;;;;;0.60;0.60;;;;;;;4.16;100.00;95823.66;29395;221;63004;-67
2023/12/14 00:37:32;;;;;;;0.57;0.57;;;;;;;4.17;100.00;95831.41;29395;268;63009;-67
2023/12/14 00:38:03;;;;;;;0.50;0.50;;;;;;;4.18;100.00;95834.91;29395;201;63004;-66
2023/12/14 00:38:35;;;;;;;0.60;0.60;;;;;;;4.17;100.00;95825.25;29395;204;63017;-68
2023/12/14 00:39:06;;;;;;;0.60;0.60;;;;;;;4.18;100.00;95829.53;29394;204;64009;-68
2023/12/14 00:39:37;;;;;;;0.50;0.50;;;;;;;4.16;100.00;95829.81;29394;216;64014;-66
2023/12/14 00:40:10;;;;;;;0.60;0.60;;;;;;;4.17;100.00;95827.91;29395;197;63010;-67
2023/12/14 00:40:41;;;;;;;0.50;0.50;;;;;;;4.17;100.00;95830.59;29395;204;63009;-67
2023/12/14 00:41:12;;;;;;;0.60;0.60;;;;;;;4.17;100.00;95828.72;29395;240;63005;-66
2023/12/14 00:41:44;;;;;;;0.50;0.50;;;;;;;4.19;100.00;95831.13;29395;197;63009;-66
2023/12/14 00:42:15;;;;;;;0.60;0.60;;;;;;;4.17;100.00;95836.78;29395;268;63005;-67
2023/12/14 00:42:46;;;;;;;0.60;0.60;;;;;;;4.17;100.00;95834.09;29395;198;63009;-67
2023/12/14 00:43:18;;;;;;;0.60;0.60;;;;;;;4.19;100.00;95839.19;29395;229;63004;-67
2023/12/14 00:43:49;;;;;;;0.55;0.55;;;;;;;4.18;100.00;95834.91;29395;257;63009;-56
2023/12/14 00:44:20;;;;;;;0.60;0.60;;;;;;;4.17;100.00;95841.34;29395;236;63004;-67
2023/12/14 00:44:52;;;;;;;0.52;0.52;;;;;;;4.17;100.00;95839.47;29394;245;64013;-66
2023/12/14 00:45:23;;;;;;;0.60;0.60;;;;;;;4.18;100.00;95846.44;29395;214;63004;-68
2023/12/14 00:45:54;;;;;;;0.50;0.50;;;;;;;4.17;100.00;95850.19;29395;298;63008;-57
2023/12/14 00:46:25;;;;;;;0.60;0.60;;;;;;;4.17;100.00;95849.41;29395;239;63005;-56
2023/12/14 00:46:58;;;;;;;0.60;0.60;;;;;;;4.17;100.00;95838.66;29395;216;63019;-66
2023/12/14 00:47:29;;;;;;;0.60;0.60;;;;;;;4.14;100.00;95849.97;29395;211;63011;-68
2023/12/14 00:48:00;;;;;;;0.60;0.60;;;;;;;4.15;100.00;95840.84;29395;244;63009;-67
2023/12/14 00:48:32;;;;;;;0.60;0.60;;;;;;;4.13;100.00;95851.06;29395;262;63005;-68
2023/12/14 00:49:22;;;;;;;0.60;0.60;;;;;;;4.16;100.00;95842.47;29395;199;63016;-59
2023/12/14 00:49:57;;;;;;;0.55;0.55;;;;;;;4.17;100.00;95844.84;29416;250;64009;-69
2023/12/14 00:50:39;;;;;;;0.60;0.60;;;;;;;4.18;100.00;95845.63;29395;256;63009;-58
2023/12/14 00:51:10;;;;;;;0.60;0.60;;;;;;;4.20;100.00;95854.22;29395;249;63002;-69
2023/12/14 00:51:41;;;;;;;0.60;0.60;;;;;;;4.21;100.00;95851.25;29395;206;63009;-69
2023/12/14 00:52:13;;;;;;;0.55;0.55;;;;;;;4.22;100.00;95846.69;29394;313;64009;-68
2023/12/14 00:52:44;;;;;;;0.50;0.50;;;;;;;4.23;100.00;95853.66;29395;235;63009;-68
2023/12/14 00:53:16;;;;;;;0.60;0.60;;;;;;;4.22;100.00;95854.75;29395;223;63011;-68
2023/12/14 00:53:50;;;;;;;0.60;0.60;;;;;;;4.22;100.00;95852.06;29395;197;63009;-68
2023/12/14 00:54:21;;;;;;;0.60;0.60;;;;;;;4.21;100.00;95863.88;29395;206;63005;-68
2023/12/14 00:54:53;;;;;;;0.60;0.60;;;;;;;4.21;100.00;95845.09;29395;254;63009;-68
2023/12/14 00:55:24;;;;;;;0.60;0.60;;;;;;;4.20;100.00;95859.59;29395;203;63005;-67
2023/12/14 00:55:55;;;;;;;0.60;0.60;;;;;;;4.19;100.00;95857.97;29395;197;63009;-68
2023/12/14 00:56:26;;;;;;;0.60;0.60;;;;;;;4.18;100.00;95857.19;29395;218;63005;-56
2023/12/14 00:56:57;;;;;;;0.60;0.60;;;;;;;4.18;100.00;95862.53;29395;228;63009;-68
2023/12/14 00:57:29;;;;;;;0.60;0.60;;;;;;;4.19;100.00;95857.97;29394;207;64009;-69
2023/12/14 00:58:00;;;;;;;0.60;0.60;;;;;;;4.17;100.00;95860.94;29395;265;63009;-67
2023/12/14 00:58:31;;;;;;;0.60;0.60;;;;;;;4.18;100.00;95861.75;29395;229;63004;-67
2023/12/14 00:59:03;;;;;;;0.60;0.60;;;;;;;4.17;100.00;95865.50;29395;204;63019;-67
2023/12/14 00:59:35;;;;;;;0.60;0.60;;;;;;;4.18;100.00;95861.75;29395;215;63016;-68
2023/12/14 01:00:09;;;;;;;0.50;0.50;;;;;;;4.18;100.00;95861.75;29395;202;63009;-67
2023/12/14 01:00:41;;;;;;;0.60;0.60;;;;;;;4.18;100.00;95872.47;29395;218;63004;-70
2023/12/14 01:01:12;;;;;;;0.60;0.60;;;;;;;4.18;100.00;95872.47;29395;196;63010;-68
2023/12/14 01:01:43;;;;;;;0.60;0.60;;;;;;;4.19;100.00;95874.09;29395;336;63005;-68
2023/12/14 01:02:15;;;;;;;0.60;0.60;;;;;;;4.20;100.00;95875.69;29395;271;63009;-69
2023/12/14 01:02:47;;;;;;;0.60;0.60;;;;;;;4.19;100.00;95871.41;29394;222;64009;-68
2023/12/14 01:03:19;;;;;;;0.60;0.60;;;;;;;4.17;100.00;95870.87;29395;308;63009;-69
2023/12/14 01:03:50;;;;;;;0.60;0.60;;;;;;;4.18;100.00;95878.66;29395;236;63005;-68
2023/12/14 01:04:21;;;;;;;0.60;0.60;;;;;;;4.16;100.00;95872.00;29395;225;63009;-69
2023/12/14 01:04:52;;;;;;;0.60;0.60;;;;;;;4.16;100.00;95874.66;29395;198;63005;-68
2023/12/14 01:05:23;;;;;;;0.55;0.55;;;;;;;4.16;100.00;95878.13;29395;203;63009;-68
2023/12/14 01:05:55;;;;;;;0.50;0.50;;;;;;;4.18;100.00;95880.53;29395;204;63004;-68
2023/12/14 01:06:26;;;;;;;0.60;0.60;;;;;;;4.17;100.00;95876.25;29395;243;63009;-67
2023/12/14 01:06:58;;;;;;;0.50;0.50;;;;;;;4.17;100.00;95877.06;29395;198;63004;-67
2023/12/14 01:07:29;;;;;;;0.60;0.60;;;;;;;4.16;100.00;95883.50;29395;224;63009;-68
2023/12/14 01:08:00;;;;;;;0.60;0.60;;;;;;;4.15;100.00;95883.81;29394;216;64009;-69
2023/12/14 01:08:31;;;;;;;0.60;0.60;;;;;;;4.14;100.00;95880.31;29395;254;63008;-68
2023/12/14 01:09:06;;;;;;;0.60;0.60;;;;;;;4.16;100.00;95880.03;29394;222;64005;-57
2023/12/14 01:09:37;;;;;;;0.50;0.50;;;;;;;4.19;100.00;95879.47;29395;284;63009;-56
2023/12/14 01:10:10;;;;;;;0.60;0.60;;;;;;;4.18;100.00;95878.66;29395;202;63005;-68
2023/12/14 01:10:41;;;;;;;0.60;0.60;;;;;;;4.19;100.00;95877.56;29395;267;63009;-68
2023/12/14 01:11:13;;;;;;;0.60;0.60;;;;;;;4.18;100.00;95884.03;29395;313;63005;-67
2023/12/14 01:11:45;;;;;;;0.50;0.50;;;;;;;4.17;100.00;95881.62;29395;274;63016;-68
2023/12/14 01:12:17;;;;;;;0.60;0.60;;;;;;;4.17;100.00;95881.62;29395;230;63005;-55
2023/12/14 01:12:50;;;;;;;0.60;0.60;;;;;;;4.17;100.00;95882.41;29395;215;63009;-55
2023/12/14 01:13:22;;;;;;;0.60;0.60;;;;;;;4.12;100.00;95870.94;29394;227;64015;-68
2023/12/14 01:13:57;;;;;;;0.60;0.60;;;;;;;4.17;100.00;95887.00;29395;227;63009;-68
2023/12/14 01:14:28;;;;;;;0.60;0.60;;;;;;;4.17;100.00;95879.72;29395;197;63004;-72
2023/12/14 01:15:03;;;;;;;0.60;0.60;;;;;;;4.23;100.00;95885.87;29395;209;63009;-68
2023/12/14 01:15:35;;;;;;;0.60;0.60;;;;;;;4.24;100.00;95887.50;29394;225;64004;-73
2023/12/14 01:16:08;;;;;;;0.60;0.60;;;;;;;4.26;100.00;95891.50;29395;213;63008;-70
2023/12/14 01:16:39;;;;;;;0.60;0.60;;;;;;;4.33;100.00;95885.84;29395;234;63005;-56
2023/12/14 01:17:11;;;;;;;0.60;0.60;;;;;;;4.33;100.00;95885.84;29395;247;63009;-69
2023/12/14 01:17:42;;;;;;;0.60;0.60;;;;;;;4.33;100.00;95885.84;29395;250;63005;-73
2023/12/14 01:18:13;;;;;;;0.57;0.57;;;;;;;4.44;100.00;95891.97;29395;230;63009;-64
2023/12/14 01:18:45;;;;;;;0.60;0.60;;;;;;;4.44;100.00;95895.44;29394;322;64009;-69
2023/12/14 01:19:16;;;;;;;0.60;0.60;;;;;;;4.40;100.00;95890.91;29395;224;63009;-65
2023/12/14 01:19:48;;;;;;;0.50;0.50;;;;;;;4.39;100.00;95890.09;29395;243;63004;-75
2023/12/14 01:20:19;;;;;;;0.70;0.70;;;;;;;4.38;100.00;95894.66;29395;204;63009;-72
2023/12/14 01:20:51;;;;;;;0.60;0.60;;;;;;;4.37;100.00;95890.38;29395;204;63004;-72
2023/12/14 01:21:22;;;;;;;0.60;0.60;;;;;;;4.39;100.00;95892.78;29395;202;63009;-70
2023/12/14 01:21:55;;;;;;;0.60;0.60;;;;;;;4.37;100.00;95894.94;29395;232;63004;-70
2023/12/14 01:22:26;;;;;;;0.60;0.60;;;;;;;4.33;100.00;95896.59;29395;219;63009;-74
2023/12/14 01:22:57;;;;;;;0.60;0.60;;;;;;;4.33;100.00;95902.75;29395;242;63004;-71
2023/12/14 01:23:28;;;;;;;0.60;0.60;;;;;;;4.36;100.00;95906.78;29395;242;63008;-70
2023/12/14 01:24:03;;;;;;;0.60;0.60;;;;;;;4.35;100.00;95905.16;29394;251;64009;-71
2023/12/14 01:24:34;;;;;;;0.60;0.60;;;;;;;4.32;100.00;95895.78;29395;209;63009;-71
2023/12/14 01:25:06;;;;;;;0.60;0.60;;;;;;;4.30;100.00;95900.63;29395;203;63005;-69
2023/12/14 01:25:37;;;;;;;0.60;0.60;;;;;;;4.28;100.00;95904.66;29395;198;63009;-71
2023/12/14 01:26:09;;;;;;;0.60;0.60;;;;;;;4.27;100.00;95903.06;29395;218;63005;-71
2023/12/14 01:26:40;;;;;;;0.60;0.60;;;;;;;4.26;100.00;95901.44;29395;290;63009;-70
2023/12/14 01:27:13;;;;;;;0.60;0.60;;;;;;;4.24;100.00;95901.72;29395;263;63010;-70
2023/12/14 01:27:45;;;;;;;0.50;0.50;;;;;;;4.24;100.00;95908.97;29395;221;63009;-72
2023/12/14 01:28:16;;;;;;;0.60;0.60;;;;;;;4.22;100.00;95895.81;29395;203;63004;-71
2023/12/14 01:28:47;;;;;;;0.60;0.60;;;;;;;4.22;100.00;95897.69;29395;203;63009;-69
2023/12/14 01:29:18;;;;;;;0.60;0.60;;;;;;;4.24;100.00;95903.59;29394;275;64009;-70
2023/12/14 01:29:50;;;;;;;0.60;0.60;;;;;;;4.24;100.00;95903.59;29395;197;63009;-69
2023/12/14 01:30:21;;;;;;;0.60;0.60;;;;;;;4.25;100.00;95899.84;29395;228;63004;-70
2023/12/14 01:30:53;;;;;;;0.60;0.60;;;;;;;4.25;100.00;95913.25;29395;196;63008;-71
2023/12/14 01:31:24;;;;;;;0.60;0.60;;;;;;;4.24;100.00;95900.91;29395;208;63004;-70
2023/12/14 01:31:56;;;;;;;0.60;0.60;;;;;;;4.24;100.00;95907.09;29395;211;63009;-71
2023/12/14 01:32:27;;;;;;;0.60;0.60;;;;;;;4.25;100.00;95910.56;29395;249;63005;-71
2023/12/14 01:32:59;;;;;;;0.60;0.60;;;;;;;4.24;100.00;95917.03;29395;205;63009;-70
2023/12/14 01:33:30;;;;;;;0.60;0.60;;;;;;;4.23;100.00;95912.75;29395;260;63005;-70
2023/12/14 01:34:01;;;;;;;0.60;0.60;;;;;;;4.22;100.00;95916.50;29395;201;63009;-71
2023/12/14 01:34:32;;;;;;;0.60;0.60;;;;;;;4.22;100.00;95917.31;29394;202;64009;-66
2023/12/14 01:35:04;;;;;;;0.60;0.60;;;;;;;4.28;100.00;95910.03;29395;215;63009;-70
2023/12/14 01:35:35;;;;;;;0.60;0.60;;;;;;;4.28;100.00;95915.41;29395;219;63004;-72
2023/12/14 01:36:08;;;;;;;0.60;0.60;;;;;;;4.27;100.00;95913.78;29394;197;64013;-72
2023/12/14 01:36:39;;;;;;;0.60;0.60;;;;;;;4.27;100.00;95924.53;29395;215;63018;-73
2023/12/14 01:37:10;;;;;;;0.60;0.60;;;;;;;4.27;100.00;95919.97;29395;215;63009;-71
2023/12/14 01:37:41;;;;;;;0.57;0.57;;;;;;;4.27;100.00;95919.16;29395;221;63015;-71
2023/12/14 01:38:13;;;;;;;0.60;0.60;;;;;;;4.27;100.00;95919.16;29395;281;63008;-72
2023/12/14 01:38:44;;;;;;;0.60;0.60;;;;;;;4.28;100.00;95921.56;29395;288;63008;-70
2023/12/14 01:39:15;;;;;;;0.52;0.52;;;;;;;4.28;100.00;95928.81;29395;203;63009;-71
2023/12/14 01:39:47;;;;;;;0.60;0.60;;;;;;;4.27;100.00;95924.53;29395;301;63008;-73
2023/12/14 01:40:21;;;;;;;0.60;0.60;;;;;;;4.30;100.00;95923.97;29395;228;63009;-56
2023/12/14 01:40:52;;;;;;;0.60;0.60;;;;;;;4.30;100.00;95921.31;29395;247;63005;-71
2023/12/14 01:41:24;;;;;;;0.60;0.60;;;;;;;4.30;100.00;95918.63;29394;202;64013;-71
2023/12/14 01:41:55;;;;;;;0.50;0.50;;;;;;;4.30;100.00;95929.34;29395;227;63000;-71
2023/12/14 01:42:26;;;;;;;0.60;0.60;;;;;;;4.30;100.00;95926.66;29395;280;63025;-72
2023/12/14 01:43:15;;;;;;;0.50;0.50;;;;;;;4.29;100.00;95923.19;29395;254;63004;-72
2023/12/14 01:43:46;;;;;;;0.60;0.60;;;;;;;4.29;100.00;95928.56;29395;272;63009;-72
2023/12/14 01:44:17;;;;;;;0.60;0.60;;;;;;;4.29;100.00;95922.38;29395;238;63004;-71
2023/12/14 01:44:49;;;;;;;0.60;0.60;;;;;;;4.30;100.00;95940.09;29394;202;64009;-57
2023/12/14 01:45:20;;;;;;;0.60;0.60;;;;;;;4.29;100.00;95933.13;29395;247;63004;-70
2023/12/14 01:45:54;;;;;;;0.60;0.60;;;;;;;4.30;100.00;95940.09;29395;300;63009;-71
2023/12/14 01:46:26;;;;;;;0.60;0.60;;;;;;;4.30;100.00;95932.03;29394;273;64009;-71
2023/12/14 01:46:57;;;;;;;0.60;0.60;;;;;;;4.30;100.00;95938.22;29395;244;63014;-72
2023/12/14 01:47:28;;;;;;;0.60;0.60;;;;;;;4.30;100.00;95935.53;29395;265;63005;-73
2023/12/14 01:48:00;;;;;;;0.60;0.60;;;;;;;4.31;100.00;95930.97;29395;225;63009;-72
2023/12/14 01:48:34;;;;;;;0.60;0.60;;;;;;;4.33;100.00;95934.19;29395;260;63005;-72
2023/12/14 01:49:05;;;;;;;0.50;0.50;;;;;;;4.34;100.00;95935.78;29395;221;63009;-71
2023/12/14 01:49:37;;;;;;;0.60;0.60;;;;;;;4.33;100.00;95939.53;29395;227;63009;-73
2023/12/14 01:50:09;;;;;;;0.60;0.60;;;;;;;4.31;100.00;95930.97;29395;199;63019;-73
2023/12/14 01:50:40;;;;;;;0.50;0.50;;;;;;;4.34;100.00;95938.47;29395;197;63004;-72
2023/12/14 01:51:11;;;;;;;0.60;0.60;;;;;;;4.32;100.00;95943.31;29395;196;63009;-71
2023/12/14 01:51:42;;;;;;;0.60;0.60;;;;;;;4.31;100.00;95936.34;29394;267;64009;-71
2023/12/14 01:52:13;;;;;;;0.60;0.60;;;;;;;4.30;100.00;95940.91;29395;258;63020;-75
2023/12/14 01:52:45;;;;;;;0.60;0.60;;;;;;;4.30;100.00;95943.59;29395;252;63004;-74
2023/12/14 01:53:16;;;;;;;0.50;0.50;;;;;;;4.32;100.00;95940.63;29395;202;63008;-71
2023/12/14 01:53:47;;;;;;;0.60;0.60;;;;;;;4.30;100.00;95940.91;29395;208;63005;-74
2023/12/14 01:54:18;;;;;;;0.55;0.55;;;;;;;4.33;100.00;95942.22;29395;211;63009;-74
2023/12/14 01:54:50;;;;;;;0.60;0.60;;;;;;;4.35;100.00;95943.56;29395;273;63005;-56
2023/12/14 01:55:22;;;;;;;0.60;0.60;;;;;;;4.36;100.00;95944.38;29395;203;63009;-74
2023/12/14 01:55:54;;;;;;;0.50;0.50;;;;;;;4.37;100.00;95945.97;29395;207;63005;-75
2023/12/14 01:56:26;;;;;;;0.60;0.60;;;;;;;4.36;100.00;95945.19;29395;198;63009;-72
2023/12/14 01:56:57;;;;;;;0.50;0.50;;;;;;;4.36;100.00;95939.81;29394;271;64009;-75
2023/12/14 01:57:29;;;;;;;0.50;0.50;;;;;;;4.35;100.00;95948.13;29395;198;63009;-73
2023/12/14 01:58:00;;;;;;;0.50;0.50;;;;;;;4.34;100.00;95935.78;29395;208;63009;-73
2023/12/14 01:58:31;;;;;;;0.60;0.60;;;;;;;4.33;100.00;95939.53;29395;247;63009;-72
2023/12/14 01:59:03;;;;;;;0.60;0.60;;;;;;;4.33;100.00;95940.34;29395;275;63011;-72
2023/12/14 01:59:34;;;;;;;0.50;0.50;;;;;;;4.33;100.00;95944.91;29395;197;63009;-72
2023/12/14 02:00:07;;;;;;;0.60;0.60;;;;;;;4.33;100.00;95939.53;29395;247;63004;-73
2023/12/14 02:01:07;;;;;;;0.60;0.60;;;;;;;4.34;100.00;95941.97;29395;266;63008;-75
2023/12/14 02:01:53;;;;;;;0.60;0.60;;;;;;;4.35;100.00;95942.75;29395;216;63005;-73
2023/12/14 02:02:25;;;;;;;0.60;0.60;;;;;;;4.36;100.00;95944.38;29394;276;64014;-75
2023/12/14 02:02:56;;;;;;;0.50;0.50;;;;;;;4.37;100.00;95946.78;29395;204;63005;-72
2023/12/14 02:03:27;;;;;;;0.60;0.60;;;;;;;4.37;100.00;95945.97;29395;248;63009;-73
2023/12/14 02:03:59;;;;;;;0.60;0.60;;;;;;;4.37;100.00;95952.16;29395;280;63005;-72
2023/12/14 02:04:30;;;;;;;0.60;0.60;;;;;;;4.37;100.00;95941.41;29395;276;63009;-73
2023/12/14 02:05:02;;;;;;;0.60;0.60;;;;;;;4.39;100.00;95954.56;29395;218;63005;-65
2023/12/14 02:05:33;;;;;;;0.60;0.60;;;;;;;4.42;100.00;95951.31;29395;233;63004;-73
2023/12/14 02:06:07;;;;;;;0.50;0.50;;;;;;;4.42;100.00;95954.00;29394;208;64004;-75
2023/12/14 02:06:38;;;;;;;0.60;0.60;;;;;;;4.42;100.00;95948.66;29395;213;63009;-72
2023/12/14 02:07:09;;;;;;;0.50;0.50;;;;;;;4.39;100.00;95959.94;29395;197;63004;-73
2023/12/14 02:07:41;;;;;;;0.60;0.60;;;;;;;4.38;100.00;95950.28;29394;272;64013;-74
2023/12/14 02:08:12;;;;;;;0.60;0.60;;;;;;;4.36;100.00;95955.13;29395;238;63004;-73
2023/12/14 02:08:43;;;;;;;0.60;0.60;;;;;;;4.36;100.00;95955.13;29395;209;63009;-73
2023/12/14 02:09:14;;;;;;;0.60;0.60;;;;;;;4.33;100.00;95956.47;29395;202;63005;-73
2023/12/14 02:09:46;;;;;;;0.60;0.60;;;;;;;4.32;100.00;95954.06;29395;207;63009;-72
2023/12/14 02:10:17;;;;;;;0.60;0.60;;;;;;;4.32;100.00;95959.44;29395;227;63005;-72
2023/12/14 02:10:48;;;;;;;0.60;0.60;;;;;;;4.32;100.00;95959.44;29395;208;63009;-72
2023/12/14 02:11:19;;;;;;;0.60;0.60;;;;;;;4.32;100.00;95964.78;29395;246;63005;-72
2023/12/14 02:11:51;;;;;;;0.50;0.50;;;;;;;4.30;100.00;95962.37;29395;387;63009;-72
2023/12/14 02:12:22;;;;;;;0.50;0.50;;;;;;;4.29;100.00;95962.66;29395;221;63005;-73
2023/12/14 02:12:53;;;;;;;0.60;0.60;;;;;;;4.30;100.00;95964.25;29394;239;64013;-74
2023/12/14 02:13:25;;;;;;;0.50;0.50;;;;;;;4.31;100.00;95958.62;29395;218;63004;-72
2023/12/14 02:13:57;;;;;;;0.60;0.60;;;;;;;4.31;100.00;95963.19;29395;234;63009;-72
2023/12/14 02:14:28;;;;;;;0.60;0.60;;;;;;;4.30;100.00;95958.91;29395;315;63004;-73
2023/12/14 02:15:00;;;;;;;0.60;0.60;;;;;;;4.29;100.00;95966.16;29395;224;63009;-72
2023/12/14 02:15:31;;;;;;;0.50;0.50;;;;;;;4.29;100.00;95962.66;29395;227;63004;-73
2023/12/14 02:16:03;;;;;;;0.55;0.55;;;;;;;4.28;100.00;95969.09;29395;229;63009;-73
2023/12/14 02:16:34;;;;;;;0.50;0.50;;;;;;;4.28;100.00;95963.75;29395;295;63005;-72
2023/12/14 02:17:06;;;;;;;0.60;0.60;;;;;;;4.26;100.00;95972.06;29395;228;63009;-72
2023/12/14 02:17:37;;;;;;;0.50;0.50;;;;;;;4.26;100.00;95973.94;29395;212;63005;-72
2023/12/14 02:18:08;;;;;;;0.60;0.60;;;;;;;4.25;100.00;95975.03;29394;224;64013;-73
2023/12/14 02:18:39;;;;;;;0.60;0.60;;;;;;;4.24;100.00;95973.41;29395;342;63005;-74
2023/12/14 02:19:11;;;;;;;0.60;0.60;;;;;;;4.26;100.00;95971.25;29395;249;63009;-73
2023/12/14 02:19:42;;;;;;;0.60;0.60;;;;;;;4.26;100.00;95972.06;29395;251;63005;-72
2023/12/14 02:20:13;;;;;;;0.60;0.60;;;;;;;4.27;100.00;95972.88;29395;298;63009;-73
2023/12/14 02:20:45;;;;;;;0.50;0.50;;;;;;;4.27;100.00;95968.31;29395;218;63004;-72
2023/12/14 02:21:16;;;;;;;0.60;0.60;;;;;;;4.27;100.00;95972.88;29395;198;63009;-72
2023/12/14 02:21:47;;;;;;;0.50;0.50;;;;;;;4.26;100.00;95976.63;29394;198;64004;-70
2023/12/14 02:22:19;;;;;;;0.60;0.60;;;;;;;4.26;100.00;95976.63;29395;219;63009;-71
2023/12/14 02:22:52;;;;;;;0.60;0.60;;;;;;;4.26;100.00;95979.31;29395;198;63004;-72
2023/12/14 02:23:23;;;;;;;0.60;0.60;;;;;;;4.24;100.00;95978.78;29394;206;64013;-72
2023/12/14 02:23:54;;;;;;;0.60;0.60;;;;;;;4.24;100.00;95978.78;29395;244;63005;-73
2023/12/14 02:24:25;;;;;;;0.60;0.60;;;;;;;4.25;100.00;95981.19;29395;206;63009;-72
2023/12/14 02:24:57;;;;;;;0.52;0.52;;;;;;;4.29;100.00;95979.56;29395;199;63005;-72
2023/12/14 02:25:28;;;;;;;0.60;0.60;;;;;;;4.29;100.00;95978.78;29395;219;63009;-71
2023/12/14 02:25:59;;;;;;;0.50;0.50;;;;;;;4.25;100.00;95975.81;29395;275;63005;-71
2023/12/14 02:26:31;;;;;;;0.50;0.50;;;;;;;4.25;100.00;95980.41;29395;226;63009;-71
2023/12/14 02:27:02;;;;;;;0.50;0.50;;;;;;;4.25;100.00;95975.81;29395;213;63005;-70
2023/12/14 02:27:33;;;;;;;0.60;0.60;;;;;;;4.24;100.00;95984.16;29395;199;63009;-72
2023/12/14 02:28:04;;;;;;;0.60;0.60;;;;;;;4.24;100.00;95978.78;29395;207;63008;-65
2023/12/14 02:28:36;;;;;;;0.50;0.50;;;;;;;4.26;100.00;95982.00;29394;198;64013;-72
2023/12/14 02:29:07;;;;;;;0.60;0.60;;;;;;;4.25;100.00;95975.03;29395;278;63004;-71
2023/12/14 02:29:40;;;;;;;0.60;0.60;;;;;;;4.26;100.00;95982.00;29395;197;63008;-71
2023/12/14 02:30:12;;;;;;;0.60;0.60;;;;;;;4.26;100.00;95985.50;29395;213;63004;-71
2023/12/14 02:30:44;;;;;;;0.60;0.60;;;;;;;4.25;100.00;95981.19;29395;255;63009;-71
2023/12/14 02:31:15;;;;;;;0.60;0.60;;;;;;;4.25;100.00;95978.50;29395;228;63005;-72
2023/12/14 02:31:47;;;;;;;0.50;0.50;;;;;;;4.25;100.00;95981.19;29395;227;63009;-71